Missouri Valley, Iowa
Current Conditions -  °F | °C
As of 3:35 PM on Friday 19 Dec 2014 (Local Time) from KBTA Reporting Station
Overcast Overcast  
Wind Chill: -4°   Ceiling: 1000
Heat Index:   Visibility: 7mi
Dew Point: -2°   Wind: 10mph
Humidity: 87%   Direction: 170°S
Pressure: 30.14"   Gusts: NA
Location:  41.56°N, 95.89°W
Report Text: KBTA 192135Z AUTO 17009KT 7SM OVC010 01/M01 A3014 RMK AO2 T00051015
Loading
Personal Weather Stations






























Interactive Weather Map New forecast layout! Learn more

10-Day Weather Forecast

Advertisements
Track Severe Weather on mobile